Time;durP1;ratioP1;P1;durP2;ratioP2;P2;SDS_P1;SDS_P2;PMS_P1;PMS_P2;Temp;Humidity;BMP_temperature;BMP_pressure;BME280_temperature;BME280_humidity;BME280_pressure;Samples;Min_cycle;Max_cycle;Signal;HPM_P1;HPM_P2
2023/07/12 00:01:21;;;;;;;15.38;3.10;;;17.70;99.90;;;;;;5047301;28;20052;-59
2023/07/12 00:03:48;;;;;;;14.23;2.22;;;17.70;99.90;;;;;;5039712;28;20057;-59
2023/07/12 00:06:17;;;;;;;12.48;2.75;;;17.70;99.90;;;;;;5038287;28;20050;-59
2023/07/12 00:08:44;;;;;;;16.33;2.63;;;17.80;99.90;;;;;;5038211;28;20046;-59
2023/07/12 00:11:16;;;;;;;17.10;3.97;;;17.70;99.90;;;;;;5046435;28;20049;-59
2023/07/12 00:13:43;;;;;;;9.00;2.13;;;17.70;99.90;;;;;;5041459;28;20503;-59
2023/07/12 00:16:24;;;;;;;15.43;2.58;;;17.60;99.90;;;;;;5039641;28;20456;-59
2023/07/12 00:18:51;;;;;;;11.43;2.00;;;17.60;99.90;;;;;;5031096;28;20047;-58
2023/07/12 00:21:24;;;;;;;11.38;2.42;;;17.60;99.90;;;;;;5034456;28;20124;-59
2023/07/12 00:23:55;;;;;;;10.98;3.20;;;17.60;99.90;;;;;;5046432;28;20041;-59
2023/07/12 00:26:33;;;;;;;15.23;3.05;;;17.60;99.90;;;;;;5029857;28;20045;-60
2023/07/12 00:29:01;;;;;;;16.95;3.67;;;17.50;99.90;;;;;;5036871;28;20044;-59
2023/07/12 00:31:31;;;;;;;8.63;2.42;;;17.50;99.90;;;;;;5046458;28;20045;-60
2023/07/12 00:33:58;;;;;;;11.60;2.83;;;17.40;99.90;;;;;;5047589;28;20080;-57
2023/07/12 00:36:26;;;;;;;10.10;2.22;;;17.40;99.90;;;;;;5042897;28;20052;-59
2023/07/12 00:38:54;;;;;;;12.40;2.13;;;17.40;99.90;;;;;;5016798;28;20142;-59
2023/07/12 00:41:58;;;;;;;11.95;2.13;;;17.40;99.90;;;;;;5032826;28;20045;-59
2023/07/12 00:44:32;;;;;;;9.55;2.25;;;17.40;99.90;;;;;;5021211;28;20044;-59
2023/07/12 00:46:59;;;;;;;10.95;2.05;;;17.30;99.90;;;;;;5044145;28;20049;-59
2023/07/12 00:49:26;;;;;;;7.80;2.15;;;17.30;99.90;;;;;;5047555;28;20080;-59
2023/07/12 00:51:59;;;;;;;8.38;2.38;;;17.20;99.90;;;;;;5042969;28;20049;-59
2023/07/12 00:54:27;;;;;;;18.25;3.03;;;17.20;99.90;;;;;;5033084;28;20041;-59
2023/07/12 00:56:53;;;;;;;6.97;1.55;;;17.10;99.90;;;;;;5037210;28;20045;-59
2023/07/12 00:59:24;;;;;;;10.75;2.15;;;17.10;99.90;;;;;;5046374;28;20048;-59
2023/07/12 01:01:53;;;;;;;10.52;2.00;;;17.00;99.90;;;;;;5024670;28;20045;-59
2023/07/12 01:04:23;;;;;;;11.52;2.22;;;17.00;99.90;;;;;;5031355;28;20574;-59
2023/07/12 01:06:50;;;;;;;12.65;2.95;;;17.00;99.90;;;;;;5006797;28;20492;-59
2023/07/12 01:09:17;;;;;;;6.97;1.88;;;17.00;99.90;;;;;;5018535;28;20057;-59
2023/07/12 01:11:45;;;;;;;6.70;1.80;;;17.10;99.90;;;;;;5045280;28;20464;-59
2023/07/12 01:14:14;;;;;;;8.85;2.22;;;17.10;99.90;;;;;;5008716;28;20444;-59
2023/07/12 01:16:42;;;;;;;6.68;1.77;;;17.10;99.90;;;;;;5039036;28;20420;-59
2023/07/12 01:19:09;;;;;;;11.25;2.33;;;17.10;99.90;;;;;;5039878;28;20096;-59
2023/07/12 01:21:47;;;;;;;16.60;2.20;;;17.00;99.90;;;;;;5035485;28;21488;-59
2023/07/12 01:24:14;;;;;;;10.20;1.90;;;17.00;99.90;;;;;;5036747;28;20049;-59
2023/07/12 01:26:45;;;;;;;12.32;2.83;;;17.00;99.90;;;;;;5040452;28;20041;-58
2023/07/12 01:29:12;;;;;;;8.48;2.50;;;17.00;99.90;;;;;;5041169;28;20057;-59
2023/07/12 01:31:39;;;;;;;11.50;2.08;;;16.90;99.90;;;;;;5035963;28;20517;-59
2023/07/12 01:34:06;;;;;;;10.68;2.28;;;16.90;99.90;;;;;;5041927;28;20053;-59
2023/07/12 01:36:33;;;;;;;17.65;2.55;;;16.90;99.90;;;;;;5035161;28;20095;-60
2023/07/12 01:39:00;;;;;;;7.10;2.22;;;16.90;99.90;;;;;;5037616;28;20045;-61
2023/07/12 01:41:27;;;;;;;13.32;2.30;;;16.90;99.90;;;;;;5045648;28;20075;-59
2023/07/12 01:43:54;;;;;;;9.70;2.33;;;16.90;99.90;;;;;;5036064;28;20050;-59
2023/07/12 01:46:21;;;;;;;12.73;2.10;;;16.90;99.90;;;;;;5046425;28;20041;-61
2023/07/12 01:48:48;;;;;;;14.05;2.85;;;16.90;99.90;;;;;;5008461;28;20569;-61
2023/07/12 01:51:25;;;;;;;8.68;2.02;;;16.90;99.90;;;;;;5014221;28;10001000;-60
2023/07/12 01:53:51;;;;;;;7.47;2.13;;;16.90;99.90;;;;;;5016009;28;20264;-60
2023/07/12 01:56:18;;;;;;;11.27;3.03;;;16.90;99.90;;;;;;5044138;28;20053;-58
2023/07/12 01:58:45;;;;;;;10.63;2.63;;;16.80;99.90;;;;;;5040868;28;20061;-59
2023/07/12 02:01:12;;;;;;;10.25;2.97;;;16.70;99.90;;;;;;5034455;28;20050;-59
2023/07/12 02:03:39;;;;;;;11.52;1.80;;;16.70;99.90;;;;;;5037914;28;20080;-60
2023/07/12 02:06:06;;;;;;;10.90;2.83;;;16.60;99.90;;;;;;5042707;28;20071;-60
2023/07/12 02:08:33;;;;;;;14.35;2.70;;;16.60;99.90;;;;;;5038883;28;20049;-60
2023/07/12 02:11:00;;;;;;;9.45;2.63;;;16.60;99.90;;;;;;5037719;28;20054;-60
2023/07/12 02:13:26;;;;;;;7.13;2.50;;;16.50;99.90;;;;;;5038793;28;20044;-60
2023/07/12 02:15:53;;;;;;;6.30;2.22;;;16.50;99.90;;;;;;5039854;28;20137;-60
2023/07/12 02:18:20;;;;;;;11.38;2.20;;;16.50;99.90;;;;;;5036083;28;20068;-60
2023/07/12 02:20:47;;;;;;;11.57;2.58;;;16.50;99.90;;;;;;5019990;28;20053;-60
2023/07/12 02:23:14;;;;;;;10.88;2.45;;;16.40;99.90;;;;;;5042037;28;20045;-60
2023/07/12 02:25:41;;;;;;;9.38;2.42;;;16.40;99.90;;;;;;5040505;28;20801;-61
2023/07/12 02:28:08;;;;;;;14.30;2.85;;;16.30;99.90;;;;;;5032937;28;20046;-60
2023/07/12 02:30:36;;;;;;;8.95;2.50;;;16.30;99.90;;;;;;5018385;28;20463;-60
2023/07/12 02:33:03;;;;;;;7.90;2.38;;;16.30;99.90;;;;;;5045604;28;20045;-61
2023/07/12 02:35:31;;;;;;;13.65;3.88;;;16.30;99.90;;;;;;5040822;28;20053;-60
2023/07/12 02:37:58;;;;;;;7.53;2.65;;;16.30;99.90;;;;;;5040301;28;20053;-60
2023/07/12 02:40:26;;;;;;;12.00;2.33;;;16.30;99.90;;;;;;5035808;28;20041;-61
2023/07/12 02:42:53;;;;;;;9.13;2.50;;;16.30;99.90;;;;;;5044535;28;20132;-60
2023/07/12 02:45:20;;;;;;;11.13;2.53;;;16.20;99.90;;;;;;5040251;28;20045;-60
2023/07/12 02:47:47;;;;;;;8.80;2.60;;;16.20;99.90;;;;;;5038104;28;20046;-60
2023/07/12 02:50:14;;;;;;;9.68;2.58;;;16.20;99.90;;;;;;5043760;28;20063;-61
2023/07/12 02:52:41;;;;;;;5.25;2.30;;;16.10;99.90;;;;;;5046965;28;20048;-60
2023/07/12 02:55:08;;;;;;;9.40;2.17;;;16.10;99.90;;;;;;5037630;28;20268;-60
2023/07/12 02:57:34;;;;;;;5.80;2.20;;;16.00;99.90;;;;;;5036355;28;20054;-60
2023/07/12 03:00:02;;;;;;;8.07;2.53;;;16.00;99.90;;;;;;5037140;28;20056;-60
2023/07/12 03:02:30;;;;;;;19.58;2.42;;;16.00;99.90;;;;;;5048633;28;20052;-60
2023/07/12 03:04:57;;;;;;;12.77;2.50;;;16.00;99.90;;;;;;5039214;28;20137;-60
2023/07/12 03:07:27;;;;;;;10.63;2.33;;;15.90;99.90;;;;;;5045508;28;20044;-60
2023/07/12 03:09:56;;;;;;;7.63;2.00;;;15.90;99.90;;;;;;5042852;28;20110;-60
2023/07/12 03:12:24;;;;;;;10.82;2.40;;;15.90;99.90;;;;;;5037091;28;20179;-60
2023/07/12 03:14:51;;;;;;;7.78;2.50;;;15.80;99.90;;;;;;5041560;28;20053;-60
2023/07/12 03:17:18;;;;;;;7.72;2.38;;;15.70;99.90;;;;;;5040215;28;20045;-61
2023/07/12 03:19:45;;;;;;;8.68;2.40;;;15.70;99.90;;;;;;5031647;28;20054;-59
2023/07/12 03:22:11;;;;;;;8.02;2.20;;;15.70;99.90;;;;;;5035473;28;20053;-60
2023/07/12 03:24:38;;;;;;;5.60;2.38;;;15.60;99.90;;;;;;5027420;28;20061;-60
2023/07/12 03:27:05;;;;;;;6.78;2.00;;;15.50;99.90;;;;;;5040290;28;20037;-60
2023/07/12 03:29:32;;;;;;;10.75;2.33;;;15.50;99.90;;;;;;5030984;28;20069;-60
2023/07/12 03:31:59;;;;;;;8.20;2.38;;;15.50;99.90;;;;;;5035249;28;20052;-60
2023/07/12 03:34:25;;;;;;;10.23;2.38;;;15.40;99.90;;;;;;5043264;28;20057;-60
2023/07/12 03:36:52;;;;;;;10.30;2.42;;;15.50;99.90;;;;;;5029573;28;20055;-59
2023/07/12 03:39:19;;;;;;;11.90;2.47;;;15.40;99.90;;;;;;5033580;28;20408;-59
2023/07/12 03:41:46;;;;;;;5.75;2.10;;;15.50;99.90;;;;;;5037251;28;20100;-58
2023/07/12 03:44:13;;;;;;;8.52;2.42;;;15.40;99.90;;;;;;5040891;28;20143;-60
2023/07/12 03:46:40;;;;;;;10.10;2.10;;;15.40;99.90;;;;;;5037446;28;20049;-59
2023/07/12 03:49:07;;;;;;;6.90;2.38;;;15.40;99.90;;;;;;5038406;28;20048;-59
2023/07/12 03:51:33;;;;;;;8.07;2.33;;;15.30;99.90;;;;;;5036824;28;20056;-58
2023/07/12 03:54:00;;;;;;;6.40;2.28;;;15.20;99.90;;;;;;5037432;28;20487;-60
2023/07/12 03:56:27;;;;;;;7.20;2.00;;;15.20;99.90;;;;;;5043359;28;20053;-59
2023/07/12 03:58:54;;;;;;;11.43;2.63;;;15.20;99.90;;;;;;5042531;28;20041;-59
2023/07/12 04:01:21;;;;;;;8.30;2.42;;;15.20;99.90;;;;;;5037118;28;20045;-59
2023/07/12 04:03:48;;;;;;;9.23;2.20;;;15.20;99.90;;;;;;5039103;28;20084;-58
2023/07/12 04:06:15;;;;;;;6.03;2.58;;;15.20;99.90;;;;;;5046570;28;20059;-58
2023/07/12 04:08:42;;;;;;;8.82;2.83;;;15.20;99.90;;;;;;5046264;28;20052;-59
2023/07/12 04:11:25;;;;;;;5.90;1.85;;;15.20;99.90;;;;;;5034076;28;20071;-59
2023/07/12 04:13:53;;;;;;;7.85;2.38;;;15.20;99.90;;;;;;5028618;28;20040;-59
2023/07/12 04:16:21;;;;;;;5.97;1.90;;;15.10;99.90;;;;;;5043762;28;20488;-60
2023/07/12 04:18:48;;;;;;;10.38;2.72;;;15.10;99.90;;;;;;5038463;28;20538;-59
2023/07/12 04:21:15;;;;;;;8.88;1.95;;;15.10;99.90;;;;;;5046819;28;20079;-59
2023/07/12 04:23:41;;;;;;;6.05;2.15;;;15.10;99.90;;;;;;5042958;28;20072;-58
2023/07/12 04:26:09;;;;;;;11.05;2.38;;;15.10;99.90;;;;;;5034901;28;20045;-58
2023/07/12 04:28:39;;;;;;;4.93;1.50;;;15.10;99.90;;;;;;5048870;28;20045;-59
2023/07/12 04:31:10;;;;;;;17.73;2.10;;;15.10;99.90;;;;;;5036314;28;20046;-59
2023/07/12 04:33:38;;;;;;;4.50;1.77;;;15.10;99.90;;;;;;5039039;28;20088;-61
2023/07/12 04:36:10;;;;;;;13.00;2.25;;;15.10;99.90;;;;;;5043840;28;20049;-60
2023/07/12 04:38:36;;;;;;;7.03;2.38;;;15.10;99.90;;;;;;5040126;28;20506;-60
2023/07/12 04:41:03;;;;;;;10.88;2.65;;;15.20;99.90;;;;;;5042262;28;20569;-60
2023/07/12 04:43:30;;;;;;;4.57;2.03;;;15.10;99.90;;;;;;5031556;28;20087;-60
2023/07/12 04:45:57;;;;;;;8.77;1.90;;;15.20;99.90;;;;;;5039224;28;20056;-60
2023/07/12 04:48:24;;;;;;;6.97;2.40;;;15.10;99.90;;;;;;5038040;28;20322;-60
2023/07/12 04:50:52;;;;;;;8.82;2.58;;;15.10;99.90;;;;;;5021145;28;20511;-60
2023/07/12 04:53:19;;;;;;;6.90;2.20;;;15.10;99.90;;;;;;5043492;28;20068;-60
2023/07/12 04:55:46;;;;;;;11.15;1.80;;;15.10;99.90;;;;;;5021757;28;20050;-60
2023/07/12 04:58:13;;;;;;;8.57;2.15;;;15.10;99.90;;;;;;5004741;28;20054;-60
2023/07/12 05:00:40;;;;;;;7.70;1.90;;;15.20;99.90;;;;;;5002958;28;20548;-61
2023/07/12 05:03:07;;;;;;;6.80;2.22;;;15.20;99.90;;;;;;4992260;28;20081;-61
2023/07/12 05:05:34;;;;;;;9.70;1.95;;;15.20;99.90;;;;;;4997864;28;20058;-60
2023/07/12 05:08:05;;;;;;;10.90;2.35;;;15.20;99.90;;;;;;5007356;28;20035;-60
2023/07/12 05:10:32;;;;;;;8.18;1.67;;;15.20;99.90;;;;;;5002754;28;20049;-60
2023/07/12 05:12:59;;;;;;;8.60;2.20;;;15.20;99.90;;;;;;4993658;28;20089;-60
2023/07/12 05:15:26;;;;;;;9.52;1.95;;;15.30;99.90;;;;;;5002407;28;20042;-60
2023/07/12 05:17:53;;;;;;;15.82;2.95;;;15.30;99.90;;;;;;5000185;28;20050;-61
2023/07/12 05:20:20;;;;;;;6.68;2.00;;;15.30;99.90;;;;;;4980795;28;20045;-60
2023/07/12 05:22:47;;;;;;;12.85;2.20;;;15.40;99.90;;;;;;5008440;28;20096;-61
2023/07/12 05:25:14;;;;;;;12.98;2.05;;;15.50;99.90;;;;;;4999162;28;20076;-60
2023/07/12 05:27:41;;;;;;;10.90;2.13;;;15.50;99.90;;;;;;5002981;28;20049;-60
2023/07/12 05:30:08;;;;;;;11.88;2.50;;;15.50;99.90;;;;;;4999145;28;20054;-58
2023/07/12 05:32:35;;;;;;;8.65;2.67;;;15.60;99.90;;;;;;5000153;28;20513;-59
2023/07/12 05:35:03;;;;;;;9.00;1.73;;;15.60;99.90;;;;;;4997799;28;20069;-59
2023/07/12 05:37:30;;;;;;;7.38;2.20;;;15.70;99.90;;;;;;4998879;28;20140;-60
2023/07/12 05:39:59;;;;;;;17.67;2.35;;;15.70;99.90;;;;;;5004494;28;20130;-60
2023/07/12 05:42:26;;;;;;;10.70;2.53;;;15.80;99.90;;;;;;4999172;28;20046;-60
2023/07/12 05:44:53;;;;;;;8.55;1.95;;;15.90;99.90;;;;;;5002827;28;20065;-60
2023/07/12 05:47:21;;;;;;;7.93;2.60;;;16.00;99.90;;;;;;4995436;28;20045;-60
2023/07/12 05:49:48;;;;;;;12.32;2.35;;;16.00;99.90;;;;;;5000024;28;20054;-61
2023/07/12 05:52:14;;;;;;;6.32;2.08;;;16.10;99.90;;;;;;4998120;28;20116;-60
2023/07/12 05:54:41;;;;;;;10.90;1.80;;;16.10;99.90;;;;;;5005211;28;20054;-60
2023/07/12 05:57:08;;;;;;;6.47;1.67;;;16.20;99.90;;;;;;5011589;28;20099;-60
2023/07/12 05:59:35;;;;;;;9.25;1.65;;;16.20;99.90;;;;;;5022678;28;20054;-60
2023/07/12 06:02:01;;;;;;;7.97;1.80;;;16.20;99.90;;;;;;5022145;28;20504;-60
2023/07/12 06:04:28;;;;;;;10.52;2.22;;;16.20;99.90;;;;;;5028078;28;20111;-60
2023/07/12 06:06:55;;;;;;;8.43;1.33;;;16.30;99.90;;;;;;5017556;28;20058;-60
2023/07/12 06:09:22;;;;;;;7.45;2.22;;;16.20;99.90;;;;;;5023441;28;20107;-60
2023/07/12 06:11:49;;;;;;;9.40;2.67;;;16.20;99.90;;;;;;5019200;28;20057;-59
2023/07/12 06:14:16;;;;;;;10.60;2.58;;;16.30;99.90;;;;;;5016303;28;20045;-59
2023/07/12 06:16:43;;;;;;;6.35;1.60;;;16.40;99.90;;;;;;5015896;28;20136;-59
2023/07/12 06:19:10;;;;;;;8.25;1.70;;;16.50;99.90;;;;;;5018008;28;20409;-59
2023/07/12 06:21:37;;;;;;;15.68;2.35;;;16.50;99.90;;;;;;5016893;28;20129;-59
2023/07/12 06:24:05;;;;;;;6.72;2.20;;;16.50;99.90;;;;;;5009633;28;20167;-60
2023/07/12 06:26:32;;;;;;;10.77;2.22;;;16.60;99.90;;;;;;5014299;28;20168;-61
2023/07/12 06:29:00;;;;;;;11.95;1.88;;;16.70;99.90;;;;;;5017438;28;20068;-60
2023/07/12 06:31:27;;;;;;;10.15;2.45;;;16.80;99.90;;;;;;5021294;28;20604;-60
2023/07/12 06:33:56;;;;;;;10.57;1.77;;;16.90;99.90;;;;;;5018315;28;20046;-60
2023/07/12 06:36:23;;;;;;;17.25;3.03;;;17.00;99.90;;;;;;5010133;28;20053;-60
2023/07/12 06:38:50;;;;;;;8.32;2.17;;;17.00;99.90;;;;;;5021524;28;20404;-59
2023/07/12 06:41:17;;;;;;;10.27;2.40;;;16.90;99.90;;;;;;5010779;28;20046;-59
2023/07/12 06:43:43;;;;;;;8.35;1.90;;;16.90;99.90;;;;;;5023930;28;20045;-59
2023/07/12 06:46:11;;;;;;;8.75;2.55;;;16.90;99.90;;;;;;5010286;28;20479;-58
2023/07/12 06:48:37;;;;;;;11.50;2.20;;;16.80;99.90;;;;;;5014638;28;20077;-59
2023/07/12 06:51:04;;;;;;;9.95;1.90;;;16.70;99.90;;;;;;5023457;28;20049;-60
2023/07/12 06:53:32;;;;;;;7.18;1.70;;;16.70;99.90;;;;;;5018101;28;20041;-61
2023/07/12 06:55:59;;;;;;;7.43;2.83;;;16.70;99.90;;;;;;5019553;28;20061;-59
2023/07/12 06:58:26;;;;;;;12.35;2.20;;;16.80;99.90;;;;;;5036253;28;20045;-59
2023/07/12 07:00:52;;;;;;;14.55;2.50;;;17.00;99.90;;;;;;5041031;28;20419;-61
2023/07/12 07:03:19;;;;;;;7.28;1.65;;;17.10;99.90;;;;;;5027645;28;20041;-59
2023/07/12 07:05:47;;;;;;;8.90;1.88;;;17.10;99.90;;;;;;5038503;28;20072;-59
2023/07/12 07:08:15;;;;;;;13.20;2.40;;;17.10;99.90;;;;;;5026142;28;20073;-64
2023/07/12 07:10:43;;;;;;;9.95;2.28;;;17.20;99.90;;;;;;5036847;28;20123;-58
2023/07/12 07:13:10;;;;;;;6.78;1.98;;;17.20;99.90;;;;;;5039023;28;20045;-60
2023/07/12 07:15:37;;;;;;;9.10;1.92;;;17.20;99.90;;;;;;5038577;28;20056;-59
2023/07/12 07:18:03;;;;;;;9.10;2.40;;;17.20;99.90;;;;;;5033523;28;20048;-59
2023/07/12 07:20:30;;;;;;;6.75;1.65;;;17.30;99.90;;;;;;5045609;28;20049;-59
2023/07/12 07:22:59;;;;;;;4.88;1.65;;;17.30;99.90;;;;;;5041967;28;20060;-66
2023/07/12 07:25:27;;;;;;;16.60;2.63;;;17.40;99.90;;;;;;5026242;28;20484;-60
2023/07/12 07:27:54;;;;;;;8.68;2.05;;;17.50;99.90;;;;;;5018219;28;20041;-62
2023/07/12 07:30:21;;;;;;;15.13;2.85;;;17.60;99.90;;;;;;5039544;28;20598;-59
2023/07/12 07:32:49;;;;;;;9.02;1.70;;;17.60;99.90;;;;;;5031459;28;20048;-59
2023/07/12 07:35:16;;;;;;;8.52;2.00;;;17.70;99.90;;;;;;5038636;28;20768;-60
2023/07/12 07:37:45;;;;;;;10.05;2.05;;;17.80;99.90;;;;;;5047139;28;20046;-60
2023/07/12 07:40:12;;;;;;;6.80;1.85;;;17.90;99.90;;;;;;5038422;28;20056;-60
2023/07/12 07:42:40;;;;;;;9.75;1.80;;;18.00;99.90;;;;;;5046341;28;20087;-60
2023/07/12 07:45:09;;;;;;;7.07;2.25;;;18.00;99.90;;;;;;5037163;28;20353;-60
2023/07/12 07:47:36;;;;;;;9.90;1.92;;;18.20;99.90;;;;;;5045315;28;20067;-60
2023/07/12 07:50:05;;;;;;;8.52;1.90;;;18.30;99.90;;;;;;5041010;28;20053;-60
2023/07/12 07:52:32;;;;;;;6.10;1.52;;;18.40;99.90;;;;;;5038348;28;20059;-60
2023/07/12 07:54:59;;;;;;;8.57;2.13;;;18.50;99.90;;;;;;5038397;28;20730;-60
2023/07/12 07:57:25;;;;;;;5.43;1.60;;;18.60;99.90;;;;;;5040406;28;20056;-60
2023/07/12 07:59:52;;;;;;;3.80;1.73;;;18.80;99.90;;;;;;5043085;28;21449;-60
2023/07/12 08:02:19;;;;;;;5.72;1.58;;;18.90;99.90;;;;;;5042414;28;20045;-59
2023/07/12 08:04:46;;;;;;;11.80;1.92;;;19.00;99.90;;;;;;5037307;28;20052;-60
2023/07/12 08:07:14;;;;;;;10.20;2.17;;;18.90;99.90;;;;;;5039590;28;20064;-60
2023/07/12 08:09:40;;;;;;;8.77;1.77;;;18.70;99.90;;;;;;5026210;28;20493;-60
2023/07/12 08:12:08;;;;;;;9.32;1.90;;;18.70;99.90;;;;;;5042910;28;20054;-61
2023/07/12 08:14:35;;;;;;;3.50;1.52;;;18.70;99.90;;;;;;5033700;28;20045;-61
2023/07/12 08:17:01;;;;;;;3.83;1.50;;;18.70;99.90;;;;;;5042830;28;20053;-62
2023/07/12 08:19:28;;;;;;;5.85;1.42;;;18.80;99.90;;;;;;5034434;28;20045;-61
2023/07/12 08:21:55;;;;;;;6.13;1.30;;;18.80;99.90;;;;;;5020628;28;20053;-60
2023/07/12 08:24:22;;;;;;;6.18;1.40;;;18.70;99.90;;;;;;5029980;28;20048;-59
2023/07/12 08:26:49;;;;;;;4.70;1.63;;;18.70;99.90;;;;;;5042748;28;20045;-60
2023/07/12 08:29:33;;;;;;;8.63;2.17;;;18.80;99.90;;;;;;5033374;28;20100;-64
2023/07/12 08:32:00;;;;;;;7.18;2.17;;;18.90;99.90;;;;;;5020380;28;20045;-57
2023/07/12 08:34:29;;;;;;;4.45;1.20;;;18.90;99.90;;;;;;5046201;28;20514;-60
2023/07/12 08:36:55;;;;;;;9.45;1.85;;;18.90;99.90;;;;;;5040945;28;20049;-60
2023/07/12 08:39:23;;;;;;;3.90;1.40;;;18.80;99.90;;;;;;5035936;28;20048;-60
2023/07/12 08:41:53;;;;;;;4.45;1.88;;;18.80;99.90;;;;;;5021310;28;20453;-60
2023/07/12 08:44:21;;;;;;;6.85;1.98;;;18.80;99.90;;;;;;5025448;28;20118;-60
2023/07/12 08:46:56;;;;;;;9.32;2.80;;;18.60;99.90;;;;;;5021008;28;20045;-59
2023/07/12 08:49:23;;;;;;;3.67;1.58;;;18.70;99.90;;;;;;5015924;28;20509;-59
2023/07/12 08:51:58;;;;;;;6.60;1.75;;;18.80;99.90;;;;;;5038085;28;20049;-59
2023/07/12 08:54:33;;;;;;;11.73;1.75;;;19.10;99.90;;;;;;5020427;28;20049;-59
2023/07/12 08:57:20;;;;;;;8.75;1.63;;;19.10;99.90;;;;;;5037994;28;20098;-59
2023/07/12 09:00:08;;;;;;;5.05;1.23;;;19.30;99.90;;;;;;5041212;28;20048;-59
2023/07/12 09:02:35;;;;;;;6.75;1.58;;;19.20;99.90;;;;;;5036857;28;20720;-59
2023/07/12 09:05:29;;;;;;;5.57;1.63;;;19.30;99.90;;;;;;5041845;28;20048;-60
2023/07/12 09:08:11;;;;;;;3.67;1.70;;;19.60;99.90;;;;;;5019821;28;20443;-59
2023/07/12 09:10:50;;;;;;;7.45;1.88;;;19.70;99.90;;;;;;5034323;28;20053;-59
2023/07/12 09:13:17;;;;;;;6.72;1.77;;;19.70;99.90;;;;;;5024498;28;20055;-59
2023/07/12 09:15:51;;;;;;;9.10;1.98;;;19.70;99.90;;;;;;5044938;28;20403;-59
2023/07/12 09:18:44;;;;;;;11.48;2.08;;;19.90;99.90;;;;;;5041233;28;20048;-59
2023/07/12 09:21:13;;;;;;;4.80;1.23;;;20.20;99.90;;;;;;5029108;28;20050;-59
2023/07/12 09:23:40;;;;;;;13.85;2.50;;;20.10;99.90;;;;;;5037111;28;20046;-59
2023/07/12 09:26:27;;;;;;;7.32;1.45;;;19.90;99.90;;;;;;5045072;28;20064;-59
2023/07/12 09:28:58;;;;;;;9.52;1.58;;;19.50;99.90;;;;;;5042345;28;20056;-59
2023/07/12 09:31:28;;;;;;;10.13;1.70;;;19.50;99.90;;;;;;5033439;28;20045;-59
2023/07/12 09:33:59;;;;;;;7.53;1.15;;;19.40;99.90;;;;;;5023773;28;20048;-59
2023/07/12 09:36:26;;;;;;;8.20;2.10;;;19.30;99.90;;;;;;5014702;28;20120;-60
2023/07/12 09:39:02;;;;;;;4.43;1.17;;;19.30;99.90;;;;;;5040405;28;20044;-59
2023/07/12 09:41:29;;;;;;;6.47;1.83;;;19.20;99.90;;;;;;5018052;28;20053;-60
2023/07/12 09:43:57;;;;;;;8.77;1.15;;;19.20;99.90;;;;;;5038167;28;20041;-59
2023/07/12 09:46:42;;;;;;;5.47;2.00;;;19.20;99.90;;;;;;5029575;28;20075;-59
2023/07/12 09:49:23;;;;;;;5.72;1.50;;;19.20;99.90;;;;;;5039232;28;20041;-59
2023/07/12 09:51:57;;;;;;;6.88;2.13;;;19.40;99.90;;;;;;5014880;28;20049;-65
2023/07/12 09:54:50;;;;;;;10.15;1.92;;;19.60;99.90;;;;;;5051613;28;20501;-60
2023/07/12 09:57:31;;;;;;;7.60;1.98;;;19.70;99.90;;;;;;5045467;28;20064;-59
2023/07/12 10:00:13;;;;;;;6.63;1.17;;;19.80;99.90;;;;;;5013405;28;20049;-60
2023/07/12 10:03:07;;;;;;;6.57;1.30;;;19.80;99.90;;;;;;5014532;28;20130;-58
2023/07/12 10:05:34;;;;;;;6.32;1.80;;;19.70;99.90;;;;;;5024594;28;20251;-59
2023/07/12 10:08:09;;;;;;;5.10;1.05;;;19.80;99.90;;;;;;5016580;28;20325;-59
2023/07/12 10:10:53;;;;;;;8.15;1.98;;;19.70;99.90;;;;;;5023992;28;20060;-59
2023/07/12 10:13:30;;;;;;;;;;;19.60;99.90;;;;;;5011095;28;20517;-59
2023/07/12 10:15:58;;;;;;;4.07;1.00;;;19.40;99.90;;;;;;5025895;28;20341;-59
2023/07/12 10:18:26;;;;;;;12.00;2.53;;;19.30;99.90;;;;;;5032538;28;20507;-59
2023/07/12 10:20:53;;;;;;;3.75;1.83;;;19.10;99.90;;;;;;5035977;28;20050;-60
2023/07/12 10:23:23;;;;;;;11.80;1.70;;;19.10;99.90;;;;;;5028416;28;20511;-59
2023/07/12 10:25:55;;;;;;;4.72;1.05;;;19.20;99.90;;;;;;5014790;28;20091;-60
2023/07/12 10:28:45;;;;;;;4.65;1.30;;;19.30;99.90;;;;;;5012691;28;20080;-59
2023/07/12 10:31:25;;;;;;;6.82;0.98;;;19.10;99.90;;;;;;5035698;28;20416;-59
2023/07/12 10:33:54;;;;;;;5.40;2.45;;;19.20;99.90;;;;;;5035121;28;20044;-59
2023/07/12 10:36:25;;;;;;;3.88;1.15;;;19.10;99.90;;;;;;5029027;28;20397;-60
2023/07/12 10:38:51;;;;;;;5.50;1.55;;;19.20;99.90;;;;;;4998002;28;20053;-59
2023/07/12 10:41:32;;;;;;;3.10;0.90;;;19.40;99.90;;;;;;5035868;28;20046;-59
2023/07/12 10:44:12;;;;;;;3.75;1.40;;;19.70;99.90;;;;;;5011253;28;20048;-59
2023/07/12 10:46:42;;;;;;;5.13;1.50;;;20.10;99.90;;;;;;5004350;28;20060;-59
2023/07/12 10:49:16;;;;;;;5.63;1.30;;;20.60;99.90;;;;;;5019492;28;20114;-61
2023/07/12 10:52:15;;;;;;;6.20;1.40;;;21.10;99.90;;;;;;5029567;28;20131;-60
2023/07/12 10:55:10;;;;;;;7.70;1.83;;;21.20;99.90;;;;;;5010030;28;20046;-61
2023/07/12 10:57:51;;;;;;;7.10;1.85;;;21.30;99.90;;;;;;5033291;28;20060;-60
2023/07/12 11:00:18;;;;;;;5.45;1.35;;;21.30;99.90;;;;;;5033154;28;20059;-59
2023/07/12 11:02:47;;;;;;;4.70;1.73;;;21.20;99.90;;;;;;5035058;28;20044;-60
2023/07/12 11:05:53;;;;;;;6.53;1.38;;;21.10;99.90;;;;;;5029055;28;20280;-60
2023/07/12 11:08:30;;;;;;;7.15;1.48;;;21.10;99.90;;;;;;5029036;28;20053;-60
2023/07/12 11:11:01;;;;;;;5.38;1.35;;;21.00;99.90;;;;;;5034504;28;20053;-60
2023/07/12 11:13:35;;;;;;;3.53;1.55;;;21.10;99.90;;;;;;5021462;28;20564;-60
2023/07/12 11:16:06;;;;;;;8.18;1.63;;;21.10;99.90;;;;;;5022625;28;20041;-60
2023/07/12 11:18:36;;;;;;;7.40;1.52;;;21.10;99.90;;;;;;5043268;28;20055;-60
2023/07/12 11:21:06;;;;;;;8.63;1.45;;;21.20;99.90;;;;;;5026553;28;20500;-60
2023/07/12 11:23:42;;;;;;;6.43;1.40;;;21.40;99.90;;;;;;5035973;28;20041;-60
2023/07/12 11:26:18;;;;;;;4.68;1.20;;;21.50;99.90;;;;;;5041930;28;20076;-59
2023/07/12 11:28:45;;;;;;;3.72;1.05;;;21.40;99.90;;;;;;5035823;28;20120;-60
2023/07/12 11:31:16;;;;;;;7.60;1.42;;;21.60;99.90;;;;;;5042750;28;20483;-60
2023/07/12 11:33:50;;;;;;;6.93;1.25;;;21.70;99.90;;;;;;5024437;28;20443;-59
2023/07/12 11:36:23;;;;;;;5.18;1.40;;;21.70;99.90;;;;;;5012850;28;20053;-59
2023/07/12 11:38:51;;;;;;;3.65;1.38;;;21.90;99.90;;;;;;5040300;28;20053;-60
2023/07/12 11:41:24;;;;;;;3.30;0.82;;;22.00;99.90;;;;;;5018304;28;20412;-60
2023/07/12 11:43:58;;;;;;;;;;;22.30;99.70;;;;;;5040621;28;20056;-60
2023/07/12 11:46:27;;;;;;;2.80;1.13;;;22.30;97.60;;;;;;5030183;28;19968;-60
2023/07/12 11:49:02;;;;;;;5.00;1.38;;;22.40;98.40;;;;;;5011579;28;20543;-60
2023/07/12 11:51:34;;;;;;;3.53;1.20;;;22.70;98.90;;;;;;5030959;28;20073;-60
2023/07/12 11:54:02;;;;;;;1.27;0.80;;;22.80;97.50;;;;;;5029142;28;20056;-60
2023/07/12 11:56:29;;;;;;;2.10;0.82;;;22.80;97.50;;;;;;5030344;28;20060;-60
2023/07/12 11:58:56;;;;;;;3.00;1.00;;;22.70;96.20;;;;;;5034762;28;20095;-60
2023/07/12 12:01:23;;;;;;;1.92;0.60;;;22.70;97.10;;;;;;5044378;28;20060;-60
2023/07/12 12:03:50;;;;;;;3.95;1.20;;;22.60;95.00;;;;;;5036087;28;20052;-59
2023/07/12 12:06:18;;;;;;;2.03;0.65;;;22.50;95.80;;;;;;5041748;28;20072;-60
2023/07/12 12:08:49;;;;;;;3.13;1.45;;;22.60;96.10;;;;;;5045545;28;20041;-60
2023/07/12 12:11:16;;;;;;;5.47;0.90;;;22.60;95.60;;;;;;5029818;28;20051;-61
2023/07/12 12:13:53;;;;;;;4.85;0.90;;;22.40;95.80;;;;;;5019391;28;20046;-58
2023/07/12 12:16:26;;;;;;;5.68;1.10;;;22.40;94.90;;;;;;5034409;28;20050;-60
2023/07/12 12:18:58;;;;;;;4.70;1.27;;;22.40;96.40;;;;;;5038608;28;20099;-60
2023/07/12 12:21:26;;;;;;;4.57;1.02;;;22.60;95.70;;;;;;5043535;28;20045;-59
2023/07/12 12:23:56;;;;;;;2.75;1.20;;;22.60;95.30;;;;;;5040175;28;20041;-59
2023/07/12 12:26:27;;;;;;;3.55;0.95;;;22.70;95.50;;;;;;5040592;28;20087;-59
2023/07/12 12:28:59;;;;;;;5.18;0.82;;;22.70;95.10;;;;;;5026700;28;20053;-59
2023/07/12 12:31:30;;;;;;;5.85;0.98;;;22.70;95.10;;;;;;5039926;28;20053;-58
2023/07/12 12:34:04;;;;;;;10.93;1.02;;;22.80;95.40;;;;;;5007447;28;20052;-59
2023/07/12 12:36:32;;;;;;;4.35;1.02;;;22.90;94.40;;;;;;5039300;28;20049;-60
2023/07/12 12:39:03;;;;;;;4.03;0.73;;;23.00;95.10;;;;;;5031144;28;20051;-59
2023/07/12 12:41:39;;;;;;;9.18;1.17;;;23.00;95.50;;;;;;5039303;28;20094;-58
2023/07/12 12:44:15;;;;;;;4.90;0.90;;;22.90;94.00;;;;;;5025478;28;20081;-61
2023/07/12 12:46:43;;;;;;;8.55;1.27;;;22.60;94.20;;;;;;5041785;28;20055;-59
2023/07/12 12:49:18;;;;;;;6.00;1.20;;;22.50;95.00;;;;;;5036847;28;20565;-61
2023/07/12 12:51:49;;;;;;;5.25;0.77;;;22.40;95.00;;;;;;5039325;28;20057;-59
2023/07/12 12:54:19;;;;;;;6.20;1.10;;;22.50;95.60;;;;;;5043826;28;20061;-59
2023/07/12 12:56:46;;;;;;;3.00;0.88;;;22.70;95.60;;;;;;5041424;28;20160;-60